﻿<?xml version="1.0" encoding="UTF-8" standalone="no"?>
<gpx xmlns="http://www.topografix.com/GPX/1/1" xmlns:gpxtpx="http://www.garmin.com/xmlschemas/TrackPointExtension/v1" xmlns:xsi="http://www.w3.org/2001/XMLSchema-instance" creator="Hribi.net" version="1.1" xsi:schemaLocation="http://www.topografix.com/GPX/1/1 http://www.topografix.com/GPX/1/1/gpx.xsd http://www.garmin.com/xmlschemas/TrackPointExtension/v1 http://www.garmin.com/xmlschemas/TrackPointExtensionv1.xsd">
  <metadata>
    <name>GPS sled</name>
    <desc>www.hribi.net</desc>
    <author>
      <name>hribi.net</name>
    </author>
    <link href="http://www.hribi.net">
      <text>Hribi.net</text>
    </link>
  </metadata>
  <trk>
    <trkseg>
      <trkpt lat="46.455193" lon="13.930270">
        <ele>706.70928</ele>
        <time>2006-10-15T02:02:18Z</time>
      </trkpt>
      <trkpt lat="46.455345" lon="13.928613">
        <ele>711.708</ele>
        <time>2006-10-15T02:01:47Z</time>
      </trkpt>
      <trkpt lat="46.456429" lon="13.928148">
        <ele>707.56272</ele>
        <time>2006-10-15T01:58:58Z</time>
      </trkpt>
      <trkpt lat="46.457963" lon="13.927252">
        <ele>807.17136</ele>
        <time>2006-10-15T12:56:40Z</time>
      </trkpt>
      <trkpt lat="46.457798" lon="13.926577">
        <ele>851.85504</ele>
        <time>2006-10-15T12:54:56Z</time>
      </trkpt>
      <trkpt lat="46.457550" lon="13.926557">
        <ele>966.61224</ele>
        <time>2006-10-15T12:54:08Z</time>
      </trkpt>
      <trkpt lat="46.457458" lon="13.926384">
        <ele>982.61424</ele>
        <time>2006-10-15T12:53:50Z</time>
      </trkpt>
      <trkpt lat="46.457362" lon="13.926244">
        <ele>982.61424</ele>
        <time>2006-10-15T12:53:37Z</time>
      </trkpt>
      <trkpt lat="46.457341" lon="13.925900">
        <ele>982.61424</ele>
        <time>2006-10-15T12:53:19Z</time>
      </trkpt>
      <trkpt lat="46.457233" lon="13.925557">
        <ele>982.61424</ele>
        <time>2006-10-15T12:52:57Z</time>
      </trkpt>
      <trkpt lat="46.457191" lon="13.925235">
        <ele>982.61424</ele>
        <time>2006-10-15T12:52:37Z</time>
      </trkpt>
      <trkpt lat="46.457148" lon="13.924935">
        <ele>982.61424</ele>
        <time>2006-10-15T12:52:18Z</time>
      </trkpt>
      <trkpt lat="46.457105" lon="13.924634">
        <ele>984.0468</ele>
        <time>2006-10-15T12:52:01Z</time>
      </trkpt>
      <trkpt lat="46.457040" lon="13.924334">
        <ele>985.47936</ele>
        <time>2006-10-15T12:51:38Z</time>
      </trkpt>
      <trkpt lat="46.456954" lon="13.923991">
        <ele>989.31984</ele>
        <time>2006-10-15T12:51:08Z</time>
      </trkpt>
      <trkpt lat="46.456847" lon="13.923690">
        <ele>990.78288</ele>
        <time>2006-10-15T12:50:49Z</time>
      </trkpt>
      <trkpt lat="46.456761" lon="13.923411">
        <ele>993.648</ele>
        <time>2006-10-15T12:50:33Z</time>
      </trkpt>
      <trkpt lat="46.456055" lon="13.924193">
        <ele>1000.84128</ele>
        <time>2006-10-15T12:49:27Z</time>
      </trkpt>
      <trkpt lat="46.456123" lon="13.922055">
        <ele>1109.50248</ele>
        <time>2006-10-15T03:39:13Z</time>
      </trkpt>
      <trkpt lat="46.456139" lon="13.920815">
        <ele>1109.50248</ele>
        <time>2006-10-15T03:39:22Z</time>
      </trkpt>
      <trkpt lat="46.455646" lon="13.920128">
        <ele>1118.1588</ele>
        <time>2006-10-15T03:42:41Z</time>
      </trkpt>
      <trkpt lat="46.455624" lon="13.920021">
        <ele>1118.1588</ele>
        <time>2006-10-15T03:42:54Z</time>
      </trkpt>
      <trkpt lat="46.455410" lon="13.920085">
        <ele>1118.1588</ele>
        <time>2006-10-15T03:43:06Z</time>
      </trkpt>
      <trkpt lat="46.455259" lon="13.920150">
        <ele>1118.1588</ele>
        <time>2006-10-15T03:43:21Z</time>
      </trkpt>
      <trkpt lat="46.455173" lon="13.920083">
        <ele>1118.1588</ele>
        <time>2006-10-15T03:43:35Z</time>
      </trkpt>
      <trkpt lat="46.455281" lon="13.919828">
        <ele>1144.09728</ele>
        <time>2006-10-15T03:45:02Z</time>
      </trkpt>
      <trkpt lat="46.455152" lon="13.919549">
        <ele>1145.07264</ele>
        <time>2006-10-15T03:45:39Z</time>
      </trkpt>
      <trkpt lat="46.455173" lon="13.919334">
        <ele>1161.40992</ele>
        <time>2006-10-15T03:47:25Z</time>
      </trkpt>
      <trkpt lat="46.455281" lon="13.918948">
        <ele>1165.2504</ele>
        <time>2006-10-15T03:49:03Z</time>
      </trkpt>
      <trkpt lat="46.455431" lon="13.918283">
        <ele>1165.2504</ele>
        <time>2006-10-15T03:49:27Z</time>
      </trkpt>
      <trkpt lat="46.455431" lon="13.917918">
        <ele>1237.36608</ele>
        <time>2006-10-15T03:59:21Z</time>
      </trkpt>
      <trkpt lat="46.455538" lon="13.917511">
        <ele>1238.31096</ele>
        <time>2006-10-15T04:05:32Z</time>
      </trkpt>
      <trkpt lat="46.455646" lon="13.917274">
        <ele>1237.82328</ele>
        <time>2006-10-15T04:05:56Z</time>
      </trkpt>
      <trkpt lat="46.455688" lon="13.917232">
        <ele>1237.36608</ele>
        <time>2006-10-15T04:06:27Z</time>
      </trkpt>
      <trkpt lat="46.455238" lon="13.916652">
        <ele>1251.29544</ele>
        <time>2006-10-15T04:08:22Z</time>
      </trkpt>
      <trkpt lat="46.455131" lon="13.916545">
        <ele>1311.8592</ele>
        <time>2006-10-15T12:36:28Z</time>
      </trkpt>
      <trkpt lat="46.455173" lon="13.916330">
        <ele>1321.0032</ele>
        <time>2006-10-15T12:36:10Z</time>
      </trkpt>
      <trkpt lat="46.455045" lon="13.915987">
        <ele>1340.2056</ele>
        <time>2006-10-15T12:35:41Z</time>
      </trkpt>
      <trkpt lat="46.455216" lon="13.915365">
        <ele>1365.68688</ele>
        <time>2006-10-15T12:34:22Z</time>
      </trkpt>
      <trkpt lat="46.455302" lon="13.915172">
        <ele>1367.60712</ele>
        <time>2006-10-15T12:33:39Z</time>
      </trkpt>
      <trkpt lat="46.455367" lon="13.915129">
        <ele>1369.03968</ele>
        <time>2006-10-15T12:33:20Z</time>
      </trkpt>
      <trkpt lat="46.455495" lon="13.914936">
        <ele>1369.03968</ele>
        <time>2006-10-15T12:33:04Z</time>
      </trkpt>
      <trkpt lat="46.455560" lon="13.914678">
        <ele>1370.9904</ele>
        <time>2006-10-15T12:32:49Z</time>
      </trkpt>
      <trkpt lat="46.455560" lon="13.914356">
        <ele>1376.26344</ele>
        <time>2006-10-15T12:32:25Z</time>
      </trkpt>
      <trkpt lat="46.455410" lon="13.914120">
        <ele>1384.91976</ele>
        <time>2006-10-15T12:31:59Z</time>
      </trkpt>
      <trkpt lat="46.455452" lon="13.913863">
        <ele>1393.57608</ele>
        <time>2006-10-15T12:31:17Z</time>
      </trkpt>
      <trkpt lat="46.455431" lon="13.913562">
        <ele>1395.984</ele>
        <time>2006-10-15T12:31:03Z</time>
      </trkpt>
      <trkpt lat="46.455388" lon="13.913283">
        <ele>1395.984</ele>
        <time>2006-10-15T12:30:44Z</time>
      </trkpt>
      <trkpt lat="46.455216" lon="13.913219">
        <ele>1399.82448</ele>
        <time>2006-10-15T12:30:27Z</time>
      </trkpt>
      <trkpt lat="46.455023" lon="13.913155">
        <ele>1403.17728</ele>
        <time>2006-10-15T12:30:14Z</time>
      </trkpt>
      <trkpt lat="46.455088" lon="13.912854">
        <ele>1411.8336</ele>
        <time>2006-10-15T12:29:58Z</time>
      </trkpt>
      <trkpt lat="46.455131" lon="13.912575">
        <ele>1413.26616</ele>
        <time>2006-10-15T12:29:39Z</time>
      </trkpt>
      <trkpt lat="46.455066" lon="13.912361">
        <ele>1415.67408</ele>
        <time>2006-10-15T12:29:24Z</time>
      </trkpt>
      <trkpt lat="46.454959" lon="13.912146">
        <ele>1420.48992</ele>
        <time>2006-10-15T12:29:09Z</time>
      </trkpt>
      <trkpt lat="46.454830" lon="13.911889">
        <ele>1422.89784</ele>
        <time>2006-10-15T12:28:54Z</time>
      </trkpt>
      <trkpt lat="46.454701" lon="13.911567">
        <ele>1425.30576</ele>
        <time>2006-10-15T12:28:41Z</time>
      </trkpt>
      <trkpt lat="46.454637" lon="13.911223">
        <ele>1433.4744</ele>
        <time>2006-10-15T12:28:29Z</time>
      </trkpt>
      <trkpt lat="46.454594" lon="13.910816">
        <ele>1440.66768</ele>
        <time>2006-10-15T12:28:14Z</time>
      </trkpt>
      <trkpt lat="46.454551" lon="13.910515">
        <ele>1441.15536</ele>
        <time>2006-10-15T12:27:58Z</time>
      </trkpt>
      <trkpt lat="46.454487" lon="13.910215">
        <ele>1445.48352</ele>
        <time>2006-10-15T12:27:40Z</time>
      </trkpt>
      <trkpt lat="46.454551" lon="13.909893">
        <ele>1445.48352</ele>
        <time>2006-10-15T12:27:24Z</time>
      </trkpt>
      <trkpt lat="46.454659" lon="13.909614">
        <ele>1444.99584</ele>
        <time>2006-10-15T12:27:05Z</time>
      </trkpt>
      <trkpt lat="46.454723" lon="13.909357">
        <ele>1444.99584</ele>
        <time>2006-10-15T12:26:46Z</time>
      </trkpt>
      <trkpt lat="46.454723" lon="13.909056">
        <ele>1444.99584</ele>
        <time>2006-10-15T12:26:31Z</time>
      </trkpt>
      <trkpt lat="46.454766" lon="13.908756">
        <ele>1445.48352</ele>
        <time>2006-10-15T12:26:15Z</time>
      </trkpt>
      <trkpt lat="46.454809" lon="13.908498">
        <ele>1448.83632</ele>
        <time>2006-10-15T12:25:52Z</time>
      </trkpt>
      <trkpt lat="46.454723" lon="13.908284">
        <ele>1444.05096</ele>
        <time>2006-10-15T12:25:33Z</time>
      </trkpt>
      <trkpt lat="46.454659" lon="13.908026">
        <ele>1444.99584</ele>
        <time>2006-10-15T12:25:17Z</time>
      </trkpt>
      <trkpt lat="46.454659" lon="13.907769">
        <ele>1448.83632</ele>
        <time>2006-10-15T12:25:05Z</time>
      </trkpt>
      <trkpt lat="46.454659" lon="13.907490">
        <ele>1449.81168</ele>
        <time>2006-10-15T12:24:53Z</time>
      </trkpt>
      <trkpt lat="46.454616" lon="13.907254">
        <ele>1449.324</ele>
        <time>2006-10-15T12:24:39Z</time>
      </trkpt>
      <trkpt lat="46.454508" lon="13.907061">
        <ele>1451.73192</ele>
        <time>2006-10-15T12:24:27Z</time>
      </trkpt>
      <trkpt lat="46.454358" lon="13.906846">
        <ele>1454.59704</ele>
        <time>2006-10-15T12:24:15Z</time>
      </trkpt>
      <trkpt lat="46.454251" lon="13.906653">
        <ele>1457.00496</ele>
        <time>2006-10-15T12:24:01Z</time>
      </trkpt>
      <trkpt lat="46.454101" lon="13.906481">
        <ele>1457.98032</ele>
        <time>2006-10-15T12:23:45Z</time>
      </trkpt>
      <trkpt lat="46.453972" lon="13.906310">
        <ele>1457.98032</ele>
        <time>2006-10-15T12:23:33Z</time>
      </trkpt>
      <trkpt lat="46.453865" lon="13.906074">
        <ele>1459.90056</ele>
        <time>2006-10-15T12:23:22Z</time>
      </trkpt>
      <trkpt lat="46.453693" lon="13.905902">
        <ele>1460.84544</ele>
        <time>2006-10-15T12:23:10Z</time>
      </trkpt>
      <trkpt lat="46.453586" lon="13.905687">
        <ele>1460.84544</ele>
        <time>2006-10-15T12:22:58Z</time>
      </trkpt>
      <trkpt lat="46.453435" lon="13.905473">
        <ele>1460.38824</ele>
        <time>2006-10-15T12:22:43Z</time>
      </trkpt>
      <trkpt lat="46.453307" lon="13.905258">
        <ele>1459.90056</ele>
        <time>2006-10-15T12:22:27Z</time>
      </trkpt>
      <trkpt lat="46.453264" lon="13.904936">
        <ele>1463.25336</ele>
        <time>2006-10-15T12:22:11Z</time>
      </trkpt>
      <trkpt lat="46.453178" lon="13.904636">
        <ele>1467.58152</ele>
        <time>2006-10-15T12:21:53Z</time>
      </trkpt>
      <trkpt lat="46.453242" lon="13.904421">
        <ele>1475.29296</ele>
        <time>2006-10-15T12:21:37Z</time>
      </trkpt>
      <trkpt lat="46.453414" lon="13.904335">
        <ele>1485.38184</ele>
        <time>2006-10-15T12:21:25Z</time>
      </trkpt>
      <trkpt lat="46.453586" lon="13.904271">
        <ele>1491.14256</ele>
        <time>2006-10-15T12:21:07Z</time>
      </trkpt>
      <trkpt lat="46.453693" lon="13.904078">
        <ele>1493.0628</ele>
        <time>2006-10-15T12:20:47Z</time>
      </trkpt>
      <trkpt lat="46.453796" lon="13.904177">
        <ele>1554.11424</ele>
        <time>2006-10-15T12:19:34Z</time>
      </trkpt>
      <trkpt lat="46.453907" lon="13.904185">
        <ele>1554.11424</ele>
        <time>2006-10-15T12:19:14Z</time>
      </trkpt>
      <trkpt lat="46.454015" lon="13.903992">
        <ele>1555.05912</ele>
        <time>2006-10-15T12:18:55Z</time>
      </trkpt>
      <trkpt lat="46.454208" lon="13.903778">
        <ele>1555.05912</ele>
        <time>2006-10-15T12:18:32Z</time>
      </trkpt>
      <trkpt lat="46.454229" lon="13.903606">
        <ele>1554.60192</ele>
        <time>2006-10-15T12:18:06Z</time>
      </trkpt>
      <trkpt lat="46.454288" lon="13.903065">
        <ele>1555.5468</ele>
        <time>2006-10-15T12:17:38Z</time>
      </trkpt>
      <trkpt lat="46.453993" lon="13.902876">
        <ele>1561.7952</ele>
        <time>2006-10-15T12:17:12Z</time>
      </trkpt>
      <trkpt lat="46.453929" lon="13.902619">
        <ele>1565.63568</ele>
        <time>2006-10-15T12:16:52Z</time>
      </trkpt>
      <trkpt lat="46.453865" lon="13.902361">
        <ele>1565.63568</ele>
        <time>2006-10-15T12:16:25Z</time>
      </trkpt>
      <trkpt lat="46.453865" lon="13.902125">
        <ele>1569.01896</ele>
        <time>2006-10-15T12:16:06Z</time>
      </trkpt>
      <trkpt lat="46.453972" lon="13.901889">
        <ele>1569.01896</ele>
        <time>2006-10-15T12:15:53Z</time>
      </trkpt>
      <trkpt lat="46.454036" lon="13.901589">
        <ele>1570.9392</ele>
        <time>2006-10-15T12:15:35Z</time>
      </trkpt>
      <trkpt lat="46.454058" lon="13.901289">
        <ele>1574.77968</ele>
        <time>2006-10-15T12:15:09Z</time>
      </trkpt>
      <trkpt lat="46.454186" lon="13.901138">
        <ele>1574.77968</ele>
        <time>2006-10-15T12:14:53Z</time>
      </trkpt>
      <trkpt lat="46.454294" lon="13.900924">
        <ele>1575.72456</ele>
        <time>2006-10-15T12:14:34Z</time>
      </trkpt>
      <trkpt lat="46.454380" lon="13.900688">
        <ele>1581.51576</ele>
        <time>2006-10-15T12:14:18Z</time>
      </trkpt>
      <trkpt lat="46.454465" lon="13.900452">
        <ele>1587.76416</ele>
        <time>2006-10-15T12:14:02Z</time>
      </trkpt>
      <trkpt lat="46.454444" lon="13.900216">
        <ele>1598.79792</ele>
        <time>2006-10-15T12:13:42Z</time>
      </trkpt>
      <trkpt lat="46.454444" lon="13.900001">
        <ele>1611.7824</ele>
        <time>2006-10-15T12:13:12Z</time>
      </trkpt>
      <trkpt lat="46.454401" lon="13.899786">
        <ele>1626.68712</ele>
        <time>2006-10-15T12:12:50Z</time>
      </trkpt>
      <trkpt lat="46.454401" lon="13.899486">
        <ele>1636.776</ele>
        <time>2006-10-15T12:12:34Z</time>
      </trkpt>
      <trkpt lat="46.454401" lon="13.899100">
        <ele>1639.6716</ele>
        <time>2006-10-15T12:12:13Z</time>
      </trkpt>
      <trkpt lat="46.454272" lon="13.898821">
        <ele>1647.35256</ele>
        <time>2006-10-15T12:11:36Z</time>
      </trkpt>
      <trkpt lat="46.454165" lon="13.898499">
        <ele>1649.2728</ele>
        <time>2006-10-15T12:11:17Z</time>
      </trkpt>
      <trkpt lat="46.454122" lon="13.898220">
        <ele>1648.78512</ele>
        <time>2006-10-15T12:11:01Z</time>
      </trkpt>
      <trkpt lat="46.453993" lon="13.897963">
        <ele>1649.2728</ele>
        <time>2006-10-15T12:10:42Z</time>
      </trkpt>
      <trkpt lat="46.453865" lon="13.897705">
        <ele>1652.65608</ele>
        <time>2006-10-15T12:10:19Z</time>
      </trkpt>
      <trkpt lat="46.453757" lon="13.897405">
        <ele>1656.49656</ele>
        <time>2006-10-15T12:10:02Z</time>
      </trkpt>
      <trkpt lat="46.453629" lon="13.897147">
        <ele>1657.44144</ele>
        <time>2006-10-15T12:09:45Z</time>
      </trkpt>
      <trkpt lat="46.453500" lon="13.896847">
        <ele>1664.6652</ele>
        <time>2006-10-15T12:09:27Z</time>
      </trkpt>
      <trkpt lat="46.453457" lon="13.896525">
        <ele>1667.53032</ele>
        <time>2006-10-15T12:09:09Z</time>
      </trkpt>
      <trkpt lat="46.453371" lon="13.896246">
        <ele>1670.42592</ele>
        <time>2006-10-15T12:08:54Z</time>
      </trkpt>
      <trkpt lat="46.453242" lon="13.895988">
        <ele>1675.72944</ele>
        <time>2006-10-15T12:08:37Z</time>
      </trkpt>
      <trkpt lat="46.453178" lon="13.895752">
        <ele>1679.56992</ele>
        <time>2006-10-15T12:08:15Z</time>
      </trkpt>
      <trkpt lat="46.453135" lon="13.895473">
        <ele>1684.84296</ele>
        <time>2006-10-15T12:07:52Z</time>
      </trkpt>
      <trkpt lat="46.453049" lon="13.895280">
        <ele>1691.57904</ele>
        <time>2006-10-15T12:07:35Z</time>
      </trkpt>
      <trkpt lat="46.452985" lon="13.895023">
        <ele>1692.52392</ele>
        <time>2006-10-15T12:07:22Z</time>
      </trkpt>
      <trkpt lat="46.453006" lon="13.894722">
        <ele>1698.31512</ele>
        <time>2006-10-15T12:07:06Z</time>
      </trkpt>
      <trkpt lat="46.453049" lon="13.894465">
        <ele>1703.58816</ele>
        <time>2006-10-15T12:06:51Z</time>
      </trkpt>
      <trkpt lat="46.453199" lon="13.894336">
        <ele>1709.83656</ele>
        <time>2006-10-15T12:06:27Z</time>
      </trkpt>
      <trkpt lat="46.453350" lon="13.894207">
        <ele>1718.49288</ele>
        <time>2006-10-15T12:06:04Z</time>
      </trkpt>
      <trkpt lat="46.453457" lon="13.893971">
        <ele>1729.55712</ele>
        <time>2006-10-15T11:59:45Z</time>
      </trkpt>
      <trkpt lat="46.453586" lon="13.893778">
        <ele>1739.15832</ele>
        <time>2006-10-15T11:58:41Z</time>
      </trkpt>
      <trkpt lat="46.453650" lon="13.893521">
        <ele>1742.05392</ele>
        <time>2006-10-15T11:58:24Z</time>
      </trkpt>
      <trkpt lat="46.453650" lon="13.893242">
        <ele>1744.46184</ele>
        <time>2006-10-15T11:58:03Z</time>
      </trkpt>
      <trkpt lat="46.453629" lon="13.892984">
        <ele>1747.81464</ele>
        <time>2006-10-15T11:57:41Z</time>
      </trkpt>
      <trkpt lat="46.453629" lon="13.892727">
        <ele>1749.2472</ele>
        <time>2006-10-15T11:57:20Z</time>
      </trkpt>
      <trkpt lat="46.453629" lon="13.892448">
        <ele>1752.1428</ele>
        <time>2006-10-15T11:57:01Z</time>
      </trkpt>
      <trkpt lat="46.453671" lon="13.892169">
        <ele>1754.55072</ele>
        <time>2006-10-15T11:56:45Z</time>
      </trkpt>
      <trkpt lat="46.453629" lon="13.891890">
        <ele>1758.87888</ele>
        <time>2006-10-15T11:56:26Z</time>
      </trkpt>
      <trkpt lat="46.453457" lon="13.891718">
        <ele>1759.82376</ele>
        <time>2006-10-15T11:56:09Z</time>
      </trkpt>
      <trkpt lat="46.453328" lon="13.891504">
        <ele>1760.79912</ele>
        <time>2006-10-15T11:55:43Z</time>
      </trkpt>
      <trkpt lat="46.453242" lon="13.891311">
        <ele>1762.71936</ele>
        <time>2006-10-15T11:55:23Z</time>
      </trkpt>
      <trkpt lat="46.453435" lon="13.891118">
        <ele>1768.96776</ele>
        <time>2006-10-15T11:54:41Z</time>
      </trkpt>
      <trkpt lat="46.453435" lon="13.890839">
        <ele>1774.2408</ele>
        <time>2006-10-15T11:54:14Z</time>
      </trkpt>
      <trkpt lat="46.453435" lon="13.890388">
        <ele>1790.57808</ele>
        <time>2006-10-15T11:51:58Z</time>
      </trkpt>
      <trkpt lat="46.453543" lon="13.889959">
        <ele>1763.20704</ele>
        <time>2006-10-15T06:39:06Z</time>
      </trkpt>
      <trkpt lat="46.453178" lon="13.889337">
        <ele>1764.6396</ele>
        <time>2006-10-15T06:41:52Z</time>
      </trkpt>
      <trkpt lat="46.453135" lon="13.889015">
        <ele>1766.07216</ele>
        <time>2006-10-15T06:42:09Z</time>
      </trkpt>
      <trkpt lat="46.453242" lon="13.888757">
        <ele>1766.55984</ele>
        <time>2006-10-15T06:42:35Z</time>
      </trkpt>
      <trkpt lat="46.453285" lon="13.888457">
        <ele>1766.55984</ele>
        <time>2006-10-15T06:42:58Z</time>
      </trkpt>
      <trkpt lat="46.453307" lon="13.888135">
        <ele>1764.6396</ele>
        <time>2006-10-15T06:43:21Z</time>
      </trkpt>
      <trkpt lat="46.453371" lon="13.887856">
        <ele>1764.6396</ele>
        <time>2006-10-15T06:43:40Z</time>
      </trkpt>
      <trkpt lat="46.453414" lon="13.887577">
        <ele>1766.55984</ele>
        <time>2006-10-15T06:44:03Z</time>
      </trkpt>
      <trkpt lat="46.453457" lon="13.887255">
        <ele>1766.55984</ele>
        <time>2006-10-15T06:44:37Z</time>
      </trkpt>
      <trkpt lat="46.453478" lon="13.886955">
        <ele>1770.888</ele>
        <time>2006-10-15T06:45:04Z</time>
      </trkpt>
      <trkpt lat="46.453457" lon="13.886676">
        <ele>1771.37568</ele>
        <time>2006-10-15T06:45:28Z</time>
      </trkpt>
      <trkpt lat="46.453414" lon="13.886397">
        <ele>1775.70384</ele>
        <time>2006-10-15T06:46:06Z</time>
      </trkpt>
      <trkpt lat="46.453371" lon="13.886161">
        <ele>1782.40944</ele>
        <time>2006-10-15T06:46:35Z</time>
      </trkpt>
      <trkpt lat="46.453393" lon="13.885839">
        <ele>1791.55344</ele>
        <time>2006-10-15T06:48:40Z</time>
      </trkpt>
      <trkpt lat="46.453388" lon="13.885803">
        <ele>1782.89712</ele>
        <time>2006-10-15T06:49:24Z</time>
      </trkpt>
      <trkpt lat="46.453435" lon="13.885732">
        <ele>1786.2804</ele>
        <time>2006-10-15T06:52:20Z</time>
      </trkpt>
      <trkpt lat="46.453521" lon="13.885646">
        <ele>1773.29592</ele>
        <time>2006-10-15T06:56:59Z</time>
      </trkpt>
      <trkpt lat="46.453671" lon="13.885410">
        <ele>1777.1364</ele>
        <time>2006-10-15T06:57:17Z</time>
      </trkpt>
      <trkpt lat="46.453779" lon="13.885195">
        <ele>1777.62408</ele>
        <time>2006-10-15T06:57:32Z</time>
      </trkpt>
      <trkpt lat="46.453843" lon="13.884959">
        <ele>1783.87248</ele>
        <time>2006-10-15T06:57:52Z</time>
      </trkpt>
      <trkpt lat="46.453950" lon="13.884723">
        <ele>1786.2804</ele>
        <time>2006-10-15T06:58:08Z</time>
      </trkpt>
      <trkpt lat="46.454015" lon="13.884509">
        <ele>1791.06576</ele>
        <time>2006-10-15T06:58:35Z</time>
      </trkpt>
      <trkpt lat="46.453993" lon="13.884337">
        <ele>1802.13</ele>
        <time>2006-10-15T07:00:16Z</time>
      </trkpt>
      <trkpt lat="46.453950" lon="13.884144">
        <ele>1804.53792</ele>
        <time>2006-10-15T07:02:42Z</time>
      </trkpt>
      <trkpt lat="46.454015" lon="13.883972">
        <ele>1802.61768</ele>
        <time>2006-10-15T07:08:02Z</time>
      </trkpt>
      <trkpt lat="46.454101" lon="13.883650">
        <ele>1800.20976</ele>
        <time>2006-10-15T07:08:38Z</time>
      </trkpt>
      <trkpt lat="46.454315" lon="13.883114">
        <ele>1758.3912</ele>
        <time>2006-10-15T07:17:51Z</time>
      </trkpt>
      <trkpt lat="46.454186" lon="13.882921">
        <ele>1842.9732</ele>
        <time>2006-10-15T10:26:42Z</time>
      </trkpt>
      <trkpt lat="46.454165" lon="13.882642">
        <ele>1850.19696</ele>
        <time>2006-10-15T10:26:20Z</time>
      </trkpt>
      <trkpt lat="46.454058" lon="13.882470">
        <ele>1858.85328</ele>
        <time>2006-10-15T10:25:57Z</time>
      </trkpt>
      <trkpt lat="46.454015" lon="13.882191">
        <ele>1859.34096</ele>
        <time>2006-10-15T10:25:39Z</time>
      </trkpt>
      <trkpt lat="46.453972" lon="13.881891">
        <ele>1860.28584</ele>
        <time>2006-10-15T10:25:26Z</time>
      </trkpt>
      <trkpt lat="46.453950" lon="13.881612">
        <ele>1864.12632</ele>
        <time>2006-10-15T10:25:09Z</time>
      </trkpt>
      <trkpt lat="46.453950" lon="13.881333">
        <ele>1866.53424</ele>
        <time>2006-10-15T10:24:53Z</time>
      </trkpt>
      <trkpt lat="46.453993" lon="13.881032">
        <ele>1867.9668</ele>
        <time>2006-10-15T10:24:40Z</time>
      </trkpt>
      <trkpt lat="46.454079" lon="13.880754">
        <ele>1870.37472</ele>
        <time>2006-10-15T10:24:22Z</time>
      </trkpt>
      <trkpt lat="46.454144" lon="13.880517">
        <ele>1871.83776</ele>
        <time>2006-10-15T10:23:54Z</time>
      </trkpt>
      <trkpt lat="46.454208" lon="13.880260">
        <ele>1871.83776</ele>
        <time>2006-10-15T10:23:31Z</time>
      </trkpt>
      <trkpt lat="46.454165" lon="13.879981">
        <ele>1871.35008</ele>
        <time>2006-10-15T10:23:13Z</time>
      </trkpt>
      <trkpt lat="46.454122" lon="13.879724">
        <ele>1869.88704</ele>
        <time>2006-10-15T10:23:00Z</time>
      </trkpt>
      <trkpt lat="46.454015" lon="13.879488">
        <ele>1869.42984</ele>
        <time>2006-10-15T10:22:45Z</time>
      </trkpt>
      <trkpt lat="46.453907" lon="13.879251">
        <ele>1867.02192</ele>
        <time>2006-10-15T10:22:31Z</time>
      </trkpt>
      <trkpt lat="46.453736" lon="13.879123">
        <ele>1867.02192</ele>
        <time>2006-10-15T10:22:17Z</time>
      </trkpt>
      <trkpt lat="46.453543" lon="13.879037">
        <ele>1867.5096</ele>
        <time>2006-10-15T10:22:03Z</time>
      </trkpt>
      <trkpt lat="46.453478" lon="13.878758">
        <ele>1866.04656</ele>
        <time>2006-10-15T10:21:44Z</time>
      </trkpt>
      <trkpt lat="46.453564" lon="13.878500">
        <ele>1865.10168</ele>
        <time>2006-10-15T10:21:32Z</time>
      </trkpt>
      <trkpt lat="46.453671" lon="13.878222">
        <ele>1866.53424</ele>
        <time>2006-10-15T10:21:18Z</time>
      </trkpt>
      <trkpt lat="46.453757" lon="13.877921">
        <ele>1870.37472</ele>
        <time>2006-10-15T10:20:57Z</time>
      </trkpt>
      <trkpt lat="46.453714" lon="13.877749">
        <ele>1879.03104</ele>
        <time>2006-10-15T10:19:52Z</time>
      </trkpt>
      <trkpt lat="46.454122" lon="13.877256">
        <ele>1874.70288</ele>
        <time>2006-10-15T07:31:11Z</time>
      </trkpt>
      <trkpt lat="46.454212" lon="13.877028">
        <ele>1873.758</ele>
        <time>2006-10-15T07:31:26Z</time>
      </trkpt>
      <trkpt lat="46.454292" lon="13.876765">
        <ele>1873.758</ele>
        <time>2006-10-15T07:31:38Z</time>
      </trkpt>
      <trkpt lat="46.454353" lon="13.876513">
        <ele>1878.54336</ele>
        <time>2006-10-15T07:31:57Z</time>
      </trkpt>
      <trkpt lat="46.454337" lon="13.876333">
        <ele>1890.09528</ele>
        <time>2006-10-15T07:32:35Z</time>
      </trkpt>
      <trkpt lat="46.454422" lon="13.876054">
        <ele>1899.2088</ele>
        <time>2006-10-15T07:38:39Z</time>
      </trkpt>
      <trkpt lat="46.454444" lon="13.875797">
        <ele>1900.18416</ele>
        <time>2006-10-15T07:39:16Z</time>
      </trkpt>
      <trkpt lat="46.454449" lon="13.875558">
        <ele>1900.18416</ele>
        <time>2006-10-15T07:39:47Z</time>
      </trkpt>
      <trkpt lat="46.454464" lon="13.875343">
        <ele>1899.69648</ele>
        <time>2006-10-15T07:40:04Z</time>
      </trkpt>
      <trkpt lat="46.454453" lon="13.875160">
        <ele>1911.7056</ele>
        <time>2006-10-15T07:40:45Z</time>
      </trkpt>
      <trkpt lat="46.454337" lon="13.874917">
        <ele>1911.7056</ele>
        <time>2006-10-15T07:41:09Z</time>
      </trkpt>
      <trkpt lat="46.454229" lon="13.874724">
        <ele>1914.11352</ele>
        <time>2006-10-15T07:41:38Z</time>
      </trkpt>
      <trkpt lat="46.454122" lon="13.874531">
        <ele>1914.6012</ele>
        <time>2006-10-15T07:42:03Z</time>
      </trkpt>
      <trkpt lat="46.454186" lon="13.874252">
        <ele>1919.90472</ele>
        <time>2006-10-15T07:42:27Z</time>
      </trkpt>
      <trkpt lat="46.454101" lon="13.874102">
        <ele>1931.42616</ele>
        <time>2006-10-15T07:43:05Z</time>
      </trkpt>
      <trkpt lat="46.454208" lon="13.873801">
        <ele>1943.43528</ele>
        <time>2006-10-15T07:43:31Z</time>
      </trkpt>
      <trkpt lat="46.454229" lon="13.873587">
        <ele>1963.64352</ele>
        <time>2006-10-15T07:45:24Z</time>
      </trkpt>
      <trkpt lat="46.454358" lon="13.873436">
        <ele>1975.16496</ele>
        <time>2006-10-15T07:46:40Z</time>
      </trkpt>
      <trkpt lat="46.454251" lon="13.873200">
        <ele>1979.9808</ele>
        <time>2006-10-15T07:47:07Z</time>
      </trkpt>
      <trkpt lat="46.454101" lon="13.873093">
        <ele>1983.3336</ele>
        <time>2006-10-15T07:47:27Z</time>
      </trkpt>
      <trkpt lat="46.454144" lon="13.872771">
        <ele>1989.09432</ele>
        <time>2006-10-15T07:48:04Z</time>
      </trkpt>
      <trkpt lat="46.454186" lon="13.872535">
        <ele>1999.67088</ele>
        <time>2006-10-15T07:48:52Z</time>
      </trkpt>
      <trkpt lat="46.454239" lon="13.872302">
        <ele>2012.65536</ele>
        <time>2006-10-15T07:49:34Z</time>
      </trkpt>
      <trkpt lat="46.454015" lon="13.872235">
        <ele>2027.56008</ele>
        <time>2006-10-15T07:50:55Z</time>
      </trkpt>
      <trkpt lat="46.453779" lon="13.872170">
        <ele>2034.29616</ele>
        <time>2006-10-15T07:51:34Z</time>
      </trkpt>
      <trkpt lat="46.453586" lon="13.872106">
        <ele>2035.72872</ele>
        <time>2006-10-15T07:51:57Z</time>
      </trkpt>
      <trkpt lat="46.453371" lon="13.872170">
        <ele>2045.8176</ele>
        <time>2006-10-15T07:53:01Z</time>
      </trkpt>
      <trkpt lat="46.453178" lon="13.872213">
        <ele>2048.7132</ele>
        <time>2006-10-15T07:53:25Z</time>
      </trkpt>
      <trkpt lat="46.453006" lon="13.872106">
        <ele>2049.20088</ele>
        <time>2006-10-15T07:53:41Z</time>
      </trkpt>
      <trkpt lat="46.452813" lon="13.872085">
        <ele>2047.73784</ele>
        <time>2006-10-15T07:53:56Z</time>
      </trkpt>
      <trkpt lat="46.452663" lon="13.871999">
        <ele>2050.14576</ele>
        <time>2006-10-15T07:54:19Z</time>
      </trkpt>
      <trkpt lat="46.452491" lon="13.871999">
        <ele>2054.9616</ele>
        <time>2006-10-15T07:54:32Z</time>
      </trkpt>
      <trkpt lat="46.452298" lon="13.871999">
        <ele>2060.23464</ele>
        <time>2006-10-15T07:54:46Z</time>
      </trkpt>
      <trkpt lat="46.452127" lon="13.871934">
        <ele>2065.53816</ele>
        <time>2006-10-15T07:54:53Z</time>
      </trkpt>
      <trkpt lat="46.451955" lon="13.871849">
        <ele>2069.37864</ele>
        <time>2006-10-15T07:55:02Z</time>
      </trkpt>
      <trkpt lat="46.451783" lon="13.871784">
        <ele>2075.13936</ele>
        <time>2006-10-15T07:55:16Z</time>
      </trkpt>
    </trkseg>
  </trk>
</gpx>
